sensor_id;sensor_type;location;lat;lon;timestamp;P1;durP1;ratioP1;P2;durP2;ratioP2
20423;SDS011;10371;49.042;8.002;2022-09-03T00:00:29;1.90;;;1.70;;
20423;SDS011;10371;49.042;8.002;2022-09-03T00:01:27;3.50;;;1.80;;
20423;SDS011;10371;49.042;8.002;2022-09-03T00:02:42;1.73;;;1.63;;
20423;SDS011;10371;49.042;8.002;2022-09-03T00:03:46;2.38;;;1.70;;
20423;SDS011;10371;49.042;8.002;2022-09-03T00:06:15;3.10;;;1.80;;
20423;SDS011;10371;49.042;8.002;2022-09-03T00:07:29;3.88;;;1.80;;
20423;SDS011;10371;49.042;8.002;2022-09-03T00:08:43;2.00;;;1.50;;
20423;SDS011;10371;49.042;8.002;2022-09-03T00:09:48;1.80;;;1.70;;
20423;SDS011;10371;49.042;8.002;2022-09-03T00:10:57;3.28;;;1.77;;
20423;SDS011;10371;49.042;8.002;2022-09-03T00:12:06;2.90;;;1.75;;
20423;SDS011;10371;49.042;8.002;2022-09-03T00:13:12;2.70;;;1.77;;
20423;SDS011;10371;49.042;8.002;2022-09-03T00:14:26;5.10;;;1.90;;
20423;SDS011;10371;49.042;8.002;2022-09-03T00:15:32;3.10;;;1.63;;
20423;SDS011;10371;49.042;8.002;2022-09-03T00:16:49;2.10;;;1.70;;
20423;SDS011;10371;49.042;8.002;2022-09-03T00:17:54;3.67;;;1.80;;
20423;SDS011;10371;49.042;8.002;2022-09-03T00:19:00;4.80;;;1.70;;
20423;SDS011;10371;49.042;8.002;2022-09-03T00:20:16;3.92;;;1.75;;
20423;SDS011;10371;49.042;8.002;2022-09-03T00:21:25;1.65;;;1.52;;
20423;SDS011;10371;49.042;8.002;2022-09-03T00:22:28;1.52;;;1.42;;
20423;SDS011;10371;49.042;8.002;2022-09-03T00:23:33;1.67;;;1.58;;
20423;SDS011;10371;49.042;8.002;2022-09-03T00:24:38;3.88;;;1.98;;
20423;SDS011;10371;49.042;8.002;2022-09-03T00:25:42;2.17;;;1.98;;
20423;SDS011;10371;49.042;8.002;2022-09-03T00:26:51;2.28;;;1.65;;
20423;SDS011;10371;49.042;8.002;2022-09-03T00:27:56;4.72;;;2.10;;
20423;SDS011;10371;49.042;8.002;2022-09-03T00:29:02;3.15;;;1.92;;
20423;SDS011;10371;49.042;8.002;2022-09-03T00:30:08;2.28;;;1.60;;
20423;SDS011;10371;49.042;8.002;2022-09-03T00:31:21;2.97;;;1.70;;
20423;SDS011;10371;49.042;8.002;2022-09-03T00:32:28;1.88;;;1.70;;
20423;SDS011;10371;49.042;8.002;2022-09-03T00:33:41;2.22;;;1.70;;
20423;SDS011;10371;49.042;8.002;2022-09-03T00:34:47;2.05;;;1.70;;
20423;SDS011;10371;49.042;8.002;2022-09-03T00:36:03;2.03;;;1.63;;
20423;SDS011;10371;49.042;8.002;2022-09-03T00:37:12;1.80;;;1.70;;
20423;SDS011;10371;49.042;8.002;2022-09-03T00:38:13;2.45;;;1.80;;
20423;SDS011;10371;49.042;8.002;2022-09-03T00:39:14;2.92;;;1.88;;
20423;SDS011;10371;49.042;8.002;2022-09-03T00:40:30;1.98;;;1.60;;
20423;SDS011;10371;49.042;8.002;2022-09-03T00:42:44;2.42;;;1.65;;
20423;SDS011;10371;49.042;8.002;2022-09-03T00:44:08;1.90;;;1.80;;
20423;SDS011;10371;49.042;8.002;2022-09-03T00:45:32;2.50;;;1.63;;
20423;SDS011;10371;49.042;8.002;2022-09-03T00:50:35;2.83;;;1.70;;
20423;SDS011;10371;49.042;8.002;2022-09-03T00:53:22;1.70;;;1.60;;
20423;SDS011;10371;49.042;8.002;2022-09-03T00:55:57;2.28;;;1.65;;
20423;SDS011;10371;49.042;8.002;2022-09-03T00:57:08;1.80;;;1.70;;
20423;SDS011;10371;49.042;8.002;2022-09-03T00:58:38;1.70;;;1.60;;
20423;SDS011;10371;49.042;8.002;2022-09-03T01:00:05;1.60;;;1.50;;
20423;SDS011;10371;49.042;8.002;2022-09-03T01:01:09;1.63;;;1.52;;
20423;SDS011;10371;49.042;8.002;2022-09-03T01:04:15;1.90;;;1.60;;
20423;SDS011;10371;49.042;8.002;2022-09-03T01:06:57;2.25;;;1.60;;
20423;SDS011;10371;49.042;8.002;2022-09-03T01:12:28;2.00;;;1.80;;
20423;SDS011;10371;49.042;8.002;2022-09-03T01:13:33;2.20;;;2.00;;
20423;SDS011;10371;49.042;8.002;2022-09-03T01:14:40;2.10;;;1.90;;
20423;SDS011;10371;49.042;8.002;2022-09-03T01:18:42;3.45;;;2.00;;
20423;SDS011;10371;49.042;8.002;2022-09-03T01:19:55;2.83;;;1.90;;
20423;SDS011;10371;49.042;8.002;2022-09-03T01:24:11;3.65;;;1.77;;
20423;SDS011;10371;49.042;8.002;2022-09-03T01:25:14;2.42;;;1.80;;
20423;SDS011;10371;49.042;8.002;2022-09-03T01:26:43;1.85;;;1.75;;
20423;SDS011;10371;49.042;8.002;2022-09-03T01:30:42;1.80;;;1.70;;
20423;SDS011;10371;49.042;8.002;2022-09-03T01:36:57;1.73;;;1.63;;
20423;SDS011;10371;49.042;8.002;2022-09-03T01:38:22;2.47;;;1.90;;
20423;SDS011;10371;49.042;8.002;2022-09-03T01:39:28;2.08;;;1.90;;
20423;SDS011;10371;49.042;8.002;2022-09-03T01:45:21;2.13;;;1.90;;
20423;SDS011;10371;49.042;8.002;2022-09-03T01:46:36;2.53;;;2.08;;
20423;SDS011;10371;49.042;8.002;2022-09-03T01:52:04;1.90;;;1.80;;
20423;SDS011;10371;49.042;8.002;2022-09-03T01:54:47;2.15;;;1.92;;
20423;SDS011;10371;49.042;8.002;2022-09-03T01:58:29;3.83;;;2.13;;
20423;SDS011;10371;49.042;8.002;2022-09-03T01:59:24;3.10;;;2.10;;
20423;SDS011;10371;49.042;8.002;2022-09-03T02:00:30;2.20;;;2.00;;
20423;SDS011;10371;49.042;8.002;2022-09-03T02:01:36;4.65;;;2.15;;
20423;SDS011;10371;49.042;8.002;2022-09-03T02:02:41;2.85;;;2.08;;
20423;SDS011;10371;49.042;8.002;2022-09-03T02:03:46;2.20;;;2.00;;
20423;SDS011;10371;49.042;8.002;2022-09-03T02:04:57;1.80;;;1.70;;
20423;SDS011;10371;49.042;8.002;2022-09-03T02:06:01;2.50;;;1.77;;
20423;SDS011;10371;49.042;8.002;2022-09-03T02:07:02;1.88;;;1.77;;
20423;SDS011;10371;49.042;8.002;2022-09-03T02:08:07;2.47;;;1.80;;
20423;SDS011;10371;49.042;8.002;2022-09-03T02:09:11;2.05;;;1.60;;
20423;SDS011;10371;49.042;8.002;2022-09-03T02:10:13;2.22;;;1.65;;
20423;SDS011;10371;49.042;8.002;2022-09-03T02:11:19;2.55;;;1.90;;
20423;SDS011;10371;49.042;8.002;2022-09-03T02:12:19;2.92;;;1.75;;
20423;SDS011;10371;49.042;8.002;2022-09-03T02:13:25;2.97;;;1.83;;
20423;SDS011;10371;49.042;8.002;2022-09-03T02:14:28;2.65;;;2.15;;
20423;SDS011;10371;49.042;8.002;2022-09-03T02:15:29;3.63;;;2.03;;
20423;SDS011;10371;49.042;8.002;2022-09-03T02:16:32;1.73;;;1.63;;
20423;SDS011;10371;49.042;8.002;2022-09-03T02:17:34;1.73;;;1.63;;
20423;SDS011;10371;49.042;8.002;2022-09-03T02:18:36;2.80;;;2.00;;
20423;SDS011;10371;49.042;8.002;2022-09-03T02:19:41;1.90;;;1.80;;
20423;SDS011;10371;49.042;8.002;2022-09-03T02:20:41;1.92;;;1.83;;
20423;SDS011;10371;49.042;8.002;2022-09-03T02:21:44;1.90;;;1.80;;
20423;SDS011;10371;49.042;8.002;2022-09-03T02:22:49;1.80;;;1.70;;
20423;SDS011;10371;49.042;8.002;2022-09-03T02:23:49;5.88;;;2.15;;
20423;SDS011;10371;49.042;8.002;2022-09-03T02:24:51;3.15;;;2.10;;
20423;SDS011;10371;49.042;8.002;2022-09-03T02:25:54;3.65;;;1.70;;
20423;SDS011;10371;49.042;8.002;2022-09-03T02:26:56;2.08;;;1.80;;
20423;SDS011;10371;49.042;8.002;2022-09-03T02:27:57;2.15;;;1.63;;
20423;SDS011;10371;49.042;8.002;2022-09-03T02:28:58;2.03;;;1.83;;
20423;SDS011;10371;49.042;8.002;2022-09-03T02:30:01;2.78;;;1.98;;
20423;SDS011;10371;49.042;8.002;2022-09-03T02:31:01;3.63;;;2.00;;
20423;SDS011;10371;49.042;8.002;2022-09-03T02:32:02;2.10;;;1.80;;
20423;SDS011;10371;49.042;8.002;2022-09-03T02:33:02;3.13;;;1.83;;
20423;SDS011;10371;49.042;8.002;2022-09-03T02:34:02;1.80;;;1.70;;
20423;SDS011;10371;49.042;8.002;2022-09-03T02:35:03;1.73;;;1.63;;
20423;SDS011;10371;49.042;8.002;2022-09-03T02:36:04;2.28;;;2.03;;
20423;SDS011;10371;49.042;8.002;2022-09-03T02:37:13;3.53;;;2.10;;
20423;SDS011;10371;49.042;8.002;2022-09-03T02:38:16;1.83;;;1.70;;
20423;SDS011;10371;49.042;8.002;2022-09-03T02:39:22;1.80;;;1.70;;
20423;SDS011;10371;49.042;8.002;2022-09-03T02:40:22;2.17;;;1.75;;
20423;SDS011;10371;49.042;8.002;2022-09-03T02:41:22;2.70;;;1.80;;
20423;SDS011;10371;49.042;8.002;2022-09-03T02:42:23;2.28;;;1.85;;
20423;SDS011;10371;49.042;8.002;2022-09-03T02:43:40;2.00;;;1.83;;
20423;SDS011;10371;49.042;8.002;2022-09-03T02:44:47;1.90;;;1.80;;
20423;SDS011;10371;49.042;8.002;2022-09-03T02:45:54;2.00;;;1.80;;
20423;SDS011;10371;49.042;8.002;2022-09-03T02:46:59;2.75;;;1.83;;
20423;SDS011;10371;49.042;8.002;2022-09-03T02:48:01;2.85;;;1.95;;
20423;SDS011;10371;49.042;8.002;2022-09-03T02:49:03;2.33;;;2.13;;
20423;SDS011;10371;49.042;8.002;2022-09-03T02:50:03;2.10;;;1.80;;
20423;SDS011;10371;49.042;8.002;2022-09-03T02:51:03;2.13;;;1.95;;
20423;SDS011;10371;49.042;8.002;2022-09-03T02:52:05;2.75;;;2.05;;
20423;SDS011;10371;49.042;8.002;2022-09-03T02:53:08;3.05;;;2.35;;
20423;SDS011;10371;49.042;8.002;2022-09-03T02:54:09;3.67;;;2.03;;
20423;SDS011;10371;49.042;8.002;2022-09-03T02:55:11;1.88;;;1.77;;
20423;SDS011;10371;49.042;8.002;2022-09-03T02:56:11;1.90;;;1.80;;
20423;SDS011;10371;49.042;8.002;2022-09-03T02:57:13;1.95;;;1.85;;
20423;SDS011;10371;49.042;8.002;2022-09-03T02:58:15;2.10;;;2.00;;
20423;SDS011;10371;49.042;8.002;2022-09-03T02:59:15;2.20;;;2.00;;
20423;SDS011;10371;49.042;8.002;2022-09-03T03:00:16;2.20;;;2.00;;
20423;SDS011;10371;49.042;8.002;2022-09-03T03:01:17;2.00;;;1.90;;
20423;SDS011;10371;49.042;8.002;2022-09-03T03:02:17;2.20;;;2.00;;
20423;SDS011;10371;49.042;8.002;2022-09-03T03:03:17;2.63;;;1.98;;
20423;SDS011;10371;49.042;8.002;2022-09-03T03:04:18;2.03;;;1.80;;
20423;SDS011;10371;49.042;8.002;2022-09-03T03:05:20;2.15;;;1.90;;
20423;SDS011;10371;49.042;8.002;2022-09-03T03:06:25;2.20;;;2.00;;
20423;SDS011;10371;49.042;8.002;2022-09-03T03:07:26;1.98;;;1.88;;
20423;SDS011;10371;49.042;8.002;2022-09-03T03:08:31;1.92;;;1.83;;
20423;SDS011;10371;49.042;8.002;2022-09-03T03:09:33;2.33;;;1.90;;
20423;SDS011;10371;49.042;8.002;2022-09-03T03:10:34;1.73;;;1.60;;
20423;SDS011;10371;49.042;8.002;2022-09-03T03:11:34;1.98;;;1.88;;
20423;SDS011;10371;49.042;8.002;2022-09-03T03:12:35;2.85;;;2.00;;
20423;SDS011;10371;49.042;8.002;2022-09-03T03:13:36;2.00;;;1.90;;
20423;SDS011;10371;49.042;8.002;2022-09-03T03:14:37;2.10;;;1.90;;
20423;SDS011;10371;49.042;8.002;2022-09-03T03:15:37;2.60;;;1.90;;
20423;SDS011;10371;49.042;8.002;2022-09-03T03:16:37;2.90;;;2.20;;
20423;SDS011;10371;49.042;8.002;2022-09-03T03:17:38;2.10;;;1.90;;
20423;SDS011;10371;49.042;8.002;2022-09-03T03:18:38;2.40;;;2.20;;
20423;SDS011;10371;49.042;8.002;2022-09-03T03:19:38;3.25;;;1.77;;
20423;SDS011;10371;49.042;8.002;2022-09-03T03:20:39;2.10;;;2.00;;
20423;SDS011;10371;49.042;8.002;2022-09-03T03:21:40;1.80;;;1.70;;
20423;SDS011;10371;49.042;8.002;2022-09-03T03:22:41;1.90;;;1.80;;
20423;SDS011;10371;49.042;8.002;2022-09-03T03:23:41;2.10;;;1.88;;
20423;SDS011;10371;49.042;8.002;2022-09-03T03:24:42;1.73;;;1.60;;
20423;SDS011;10371;49.042;8.002;2022-09-03T03:25:42;2.38;;;2.10;;
20423;SDS011;10371;49.042;8.002;2022-09-03T03:26:43;3.58;;;2.00;;
20423;SDS011;10371;49.042;8.002;2022-09-03T03:27:43;2.45;;;2.00;;
20423;SDS011;10371;49.042;8.002;2022-09-03T03:28:44;1.98;;;1.80;;
20423;SDS011;10371;49.042;8.002;2022-09-03T03:29:47;2.10;;;1.90;;
20423;SDS011;10371;49.042;8.002;2022-09-03T03:30:47;1.80;;;1.70;;
20423;SDS011;10371;49.042;8.002;2022-09-03T03:31:48;2.40;;;1.88;;
20423;SDS011;10371;49.042;8.002;2022-09-03T03:32:49;2.17;;;1.98;;
20423;SDS011;10371;49.042;8.002;2022-09-03T03:33:56;3.22;;;1.92;;
20423;SDS011;10371;49.042;8.002;2022-09-03T03:34:58;1.92;;;1.80;;
20423;SDS011;10371;49.042;8.002;2022-09-03T03:36:02;3.97;;;1.95;;
20423;SDS011;10371;49.042;8.002;2022-09-03T03:37:03;2.55;;;1.67;;
20423;SDS011;10371;49.042;8.002;2022-09-03T03:38:04;2.10;;;2.00;;
20423;SDS011;10371;49.042;8.002;2022-09-03T03:39:05;3.15;;;2.08;;
20423;SDS011;10371;49.042;8.002;2022-09-03T03:40:05;2.08;;;1.80;;
20423;SDS011;10371;49.042;8.002;2022-09-03T03:41:10;1.92;;;1.83;;
20423;SDS011;10371;49.042;8.002;2022-09-03T03:42:12;1.90;;;1.80;;
20423;SDS011;10371;49.042;8.002;2022-09-03T03:43:13;2.67;;;1.77;;
20423;SDS011;10371;49.042;8.002;2022-09-03T03:44:13;1.90;;;1.80;;
20423;SDS011;10371;49.042;8.002;2022-09-03T03:45:14;2.10;;;1.90;;
20423;SDS011;10371;49.042;8.002;2022-09-03T03:46:14;2.10;;;1.85;;
20423;SDS011;10371;49.042;8.002;2022-09-03T03:47:15;2.08;;;1.88;;
20423;SDS011;10371;49.042;8.002;2022-09-03T03:48:18;2.47;;;2.10;;
20423;SDS011;10371;49.042;8.002;2022-09-03T03:49:18;2.40;;;1.95;;
20423;SDS011;10371;49.042;8.002;2022-09-03T03:50:18;2.75;;;1.92;;
20423;SDS011;10371;49.042;8.002;2022-09-03T03:51:19;4.18;;;2.13;;
20423;SDS011;10371;49.042;8.002;2022-09-03T03:52:20;2.80;;;2.20;;
20423;SDS011;10371;49.042;8.002;2022-09-03T03:53:20;2.63;;;2.00;;
20423;SDS011;10371;49.042;8.002;2022-09-03T03:54:20;2.50;;;2.30;;
20423;SDS011;10371;49.042;8.002;2022-09-03T03:55:21;1.90;;;1.80;;
20423;SDS011;10371;49.042;8.002;2022-09-03T03:56:22;2.65;;;2.20;;
20423;SDS011;10371;49.042;8.002;2022-09-03T03:57:23;2.22;;;1.92;;
20423;SDS011;10371;49.042;8.002;2022-09-03T03:58:24;3.75;;;2.00;;
20423;SDS011;10371;49.042;8.002;2022-09-03T03:59:25;2.85;;;1.90;;
20423;SDS011;10371;49.042;8.002;2022-09-03T04:00:26;3.38;;;1.90;;
20423;SDS011;10371;49.042;8.002;2022-09-03T04:01:26;2.10;;;1.90;;
20423;SDS011;10371;49.042;8.002;2022-09-03T04:02:27;3.22;;;2.10;;
20423;SDS011;10371;49.042;8.002;2022-09-03T04:03:27;2.25;;;2.00;;
20423;SDS011;10371;49.042;8.002;2022-09-03T04:04:28;2.22;;;2.00;;
20423;SDS011;10371;49.042;8.002;2022-09-03T04:05:28;2.75;;;1.85;;
20423;SDS011;10371;49.042;8.002;2022-09-03T04:06:29;2.15;;;1.90;;
20423;SDS011;10371;49.042;8.002;2022-09-03T04:07:29;2.03;;;1.92;;
20423;SDS011;10371;49.042;8.002;2022-09-03T04:08:30;2.55;;;2.03;;
20423;SDS011;10371;49.042;8.002;2022-09-03T04:09:37;2.63;;;2.28;;
20423;SDS011;10371;49.042;8.002;2022-09-03T04:10:38;2.22;;;2.13;;
20423;SDS011;10371;49.042;8.002;2022-09-03T04:11:38;2.20;;;2.00;;
20423;SDS011;10371;49.042;8.002;2022-09-03T04:12:38;3.17;;;2.10;;
20423;SDS011;10371;49.042;8.002;2022-09-03T04:13:40;1.88;;;1.77;;
20423;SDS011;10371;49.042;8.002;2022-09-03T04:14:41;2.75;;;2.10;;
20423;SDS011;10371;49.042;8.002;2022-09-03T04:15:42;5.15;;;2.03;;
20423;SDS011;10371;49.042;8.002;2022-09-03T04:16:42;2.72;;;2.17;;
20423;SDS011;10371;49.042;8.002;2022-09-03T04:17:45;2.20;;;2.00;;
20423;SDS011;10371;49.042;8.002;2022-09-03T04:18:46;2.42;;;2.22;;
20423;SDS011;10371;49.042;8.002;2022-09-03T04:19:48;2.55;;;2.00;;
20423;SDS011;10371;49.042;8.002;2022-09-03T04:20:48;3.15;;;2.05;;
20423;SDS011;10371;49.042;8.002;2022-09-03T04:21:49;2.72;;;2.08;;
20423;SDS011;10371;49.042;8.002;2022-09-03T04:22:49;2.80;;;2.00;;
20423;SDS011;10371;49.042;8.002;2022-09-03T04:23:50;2.40;;;2.20;;
20423;SDS011;10371;49.042;8.002;2022-09-03T04:24:51;2.25;;;2.05;;
20423;SDS011;10371;49.042;8.002;2022-09-03T04:25:52;2.65;;;1.90;;
20423;SDS011;10371;49.042;8.002;2022-09-03T04:26:52;2.42;;;2.00;;
20423;SDS011;10371;49.042;8.002;2022-09-03T04:27:53;2.80;;;2.00;;
20423;SDS011;10371;49.042;8.002;2022-09-03T04:28:54;2.50;;;2.30;;
20423;SDS011;10371;49.042;8.002;2022-09-03T04:29:54;2.58;;;2.03;;
20423;SDS011;10371;49.042;8.002;2022-09-03T04:30:54;2.13;;;1.85;;
20423;SDS011;10371;49.042;8.002;2022-09-03T04:32:10;2.25;;;2.05;;
20423;SDS011;10371;49.042;8.002;2022-09-03T04:33:29;2.67;;;1.90;;
20423;SDS011;10371;49.042;8.002;2022-09-03T04:34:30;2.28;;;2.08;;
20423;SDS011;10371;49.042;8.002;2022-09-03T04:35:31;2.35;;;2.15;;
20423;SDS011;10371;49.042;8.002;2022-09-03T04:36:32;2.28;;;2.05;;
20423;SDS011;10371;49.042;8.002;2022-09-03T04:37:33;2.20;;;2.00;;
20423;SDS011;10371;49.042;8.002;2022-09-03T04:38:34;2.20;;;2.10;;
20423;SDS011;10371;49.042;8.002;2022-09-03T04:39:36;1.95;;;1.85;;
20423;SDS011;10371;49.042;8.002;2022-09-03T04:40:36;2.40;;;2.20;;
20423;SDS011;10371;49.042;8.002;2022-09-03T04:41:37;2.53;;;2.33;;
20423;SDS011;10371;49.042;8.002;2022-09-03T04:42:37;3.63;;;2.38;;
20423;SDS011;10371;49.042;8.002;2022-09-03T04:43:38;2.50;;;2.30;;
20423;SDS011;10371;49.042;8.002;2022-09-03T04:44:41;3.15;;;2.40;;
20423;SDS011;10371;49.042;8.002;2022-09-03T04:45:41;3.33;;;2.10;;
20423;SDS011;10371;49.042;8.002;2022-09-03T04:46:41;2.53;;;2.30;;
20423;SDS011;10371;49.042;8.002;2022-09-03T04:47:42;2.75;;;2.30;;
20423;SDS011;10371;49.042;8.002;2022-09-03T04:48:42;3.47;;;2.53;;
20423;SDS011;10371;49.042;8.002;2022-09-03T04:49:43;3.05;;;2.42;;
20423;SDS011;10371;49.042;8.002;2022-09-03T04:50:43;2.50;;;2.30;;
20423;SDS011;10371;49.042;8.002;2022-09-03T04:51:44;2.20;;;2.10;;
20423;SDS011;10371;49.042;8.002;2022-09-03T04:52:44;2.33;;;2.10;;
20423;SDS011;10371;49.042;8.002;2022-09-03T04:53:45;2.72;;;2.30;;
20423;SDS011;10371;49.042;8.002;2022-09-03T04:54:46;2.58;;;2.38;;
20423;SDS011;10371;49.042;8.002;2022-09-03T04:55:47;3.72;;;2.50;;
20423;SDS011;10371;49.042;8.002;2022-09-03T04:56:47;3.58;;;2.70;;
20423;SDS011;10371;49.042;8.002;2022-09-03T04:57:47;5.03;;;2.80;;
20423;SDS011;10371;49.042;8.002;2022-09-03T04:58:48;3.80;;;2.97;;
20423;SDS011;10371;49.042;8.002;2022-09-03T04:59:53;3.00;;;2.70;;
20423;SDS011;10371;49.042;8.002;2022-09-03T05:00:53;2.92;;;2.65;;
20423;SDS011;10371;49.042;8.002;2022-09-03T05:01:53;3.65;;;2.80;;
20423;SDS011;10371;49.042;8.002;2022-09-03T05:02:58;4.22;;;3.05;;
20423;SDS011;10371;49.042;8.002;2022-09-03T05:03:59;4.70;;;3.05;;
20423;SDS011;10371;49.042;8.002;2022-09-03T05:05:02;3.60;;;3.30;;
20423;SDS011;10371;49.042;8.002;2022-09-03T05:06:03;3.20;;;2.92;;
20423;SDS011;10371;49.042;8.002;2022-09-03T05:07:04;4.60;;;3.10;;
20423;SDS011;10371;49.042;8.002;2022-09-03T05:08:05;4.65;;;3.13;;
20423;SDS011;10371;49.042;8.002;2022-09-03T05:09:06;3.75;;;3.10;;
20423;SDS011;10371;49.042;8.002;2022-09-03T05:10:07;3.95;;;3.60;;
20423;SDS011;10371;49.042;8.002;2022-09-03T05:11:12;3.90;;;3.53;;
20423;SDS011;10371;49.042;8.002;2022-09-03T05:12:12;3.75;;;3.45;;
20423;SDS011;10371;49.042;8.002;2022-09-03T05:13:12;4.32;;;4.03;;
20423;SDS011;10371;49.042;8.002;2022-09-03T05:14:13;4.32;;;3.80;;
20423;SDS011;10371;49.042;8.002;2022-09-03T05:15:13;4.38;;;4.00;;
20423;SDS011;10371;49.042;8.002;2022-09-03T05:16:13;4.43;;;4.05;;
20423;SDS011;10371;49.042;8.002;2022-09-03T05:17:14;4.28;;;3.95;;
20423;SDS011;10371;49.042;8.002;2022-09-03T05:18:14;4.22;;;3.92;;
20423;SDS011;10371;49.042;8.002;2022-09-03T05:19:14;4.00;;;3.70;;
20423;SDS011;10371;49.042;8.002;2022-09-03T05:20:15;5.10;;;4.18;;
20423;SDS011;10371;49.042;8.002;2022-09-03T05:21:16;4.63;;;4.25;;
20423;SDS011;10371;49.042;8.002;2022-09-03T05:22:18;4.40;;;4.00;;
20423;SDS011;10371;49.042;8.002;2022-09-03T05:23:20;4.50;;;4.10;;
20423;SDS011;10371;49.042;8.002;2022-09-03T05:24:21;4.78;;;4.30;;
20423;SDS011;10371;49.042;8.002;2022-09-03T05:25:22;4.95;;;4.55;;
20423;SDS011;10371;49.042;8.002;2022-09-03T05:26:24;4.15;;;3.85;;
20423;SDS011;10371;49.042;8.002;2022-09-03T05:27:26;4.45;;;4.15;;
20423;SDS011;10371;49.042;8.002;2022-09-03T05:28:27;6.05;;;4.15;;
20423;SDS011;10371;49.042;8.002;2022-09-03T05:29:29;4.85;;;4.45;;
20423;SDS011;10371;49.042;8.002;2022-09-03T05:30:29;6.13;;;5.00;;
20423;SDS011;10371;49.042;8.002;2022-09-03T05:31:30;5.30;;;4.70;;
20423;SDS011;10371;49.042;8.002;2022-09-03T05:32:30;5.18;;;4.75;;
20423;SDS011;10371;49.042;8.002;2022-09-03T05:33:38;5.60;;;5.00;;
20423;SDS011;10371;49.042;8.002;2022-09-03T05:34:42;4.90;;;4.50;;
20423;SDS011;10371;49.042;8.002;2022-09-03T05:35:42;5.78;;;5.28;;
20423;SDS011;10371;49.042;8.002;2022-09-03T05:36:43;5.65;;;5.07;;
20423;SDS011;10371;49.042;8.002;2022-09-03T05:37:45;5.70;;;4.60;;
20423;SDS011;10371;49.042;8.002;2022-09-03T05:38:47;4.70;;;4.25;;
20423;SDS011;10371;49.042;8.002;2022-09-03T05:39:48;4.32;;;3.92;;
20423;SDS011;10371;49.042;8.002;2022-09-03T05:40:48;4.10;;;3.80;;
20423;SDS011;10371;49.042;8.002;2022-09-03T05:41:48;3.90;;;3.60;;
20423;SDS011;10371;49.042;8.002;2022-09-03T05:42:55;4.05;;;3.63;;
20423;SDS011;10371;49.042;8.002;2022-09-03T05:43:57;3.95;;;3.65;;
20423;SDS011;10371;49.042;8.002;2022-09-03T05:44:57;4.18;;;3.75;;
20423;SDS011;10371;49.042;8.002;2022-09-03T05:45:59;3.85;;;3.55;;
20423;SDS011;10371;49.042;8.002;2022-09-03T05:47:06;4.00;;;3.70;;
20423;SDS011;10371;49.042;8.002;2022-09-03T05:48:06;4.22;;;3.83;;
20423;SDS011;10371;49.042;8.002;2022-09-03T05:49:07;6.35;;;4.15;;
20423;SDS011;10371;49.042;8.002;2022-09-03T05:50:07;4.57;;;4.20;;
20423;SDS011;10371;49.042;8.002;2022-09-03T05:51:11;4.05;;;3.72;;
20423;SDS011;10371;49.042;8.002;2022-09-03T05:52:15;4.30;;;3.90;;
20423;SDS011;10371;49.042;8.002;2022-09-03T05:53:15;4.50;;;4.20;;
20423;SDS011;10371;49.042;8.002;2022-09-03T05:54:16;4.40;;;4.10;;
20423;SDS011;10371;49.042;8.002;2022-09-03T05:55:17;5.00;;;4.50;;
20423;SDS011;10371;49.042;8.002;2022-09-03T05:56:18;4.53;;;4.13;;
20423;SDS011;10371;49.042;8.002;2022-09-03T05:57:19;4.45;;;4.15;;
20423;SDS011;10371;49.042;8.002;2022-09-03T05:58:20;4.57;;;4.28;;
20423;SDS011;10371;49.042;8.002;2022-09-03T05:59:20;7.13;;;4.60;;
20423;SDS011;10371;49.042;8.002;2022-09-03T06:00:21;6.68;;;5.30;;
20423;SDS011;10371;49.042;8.002;2022-09-03T06:01:25;5.45;;;4.93;;
20423;SDS011;10371;49.042;8.002;2022-09-03T06:02:27;6.20;;;5.60;;
20423;SDS011;10371;49.042;8.002;2022-09-03T06:03:28;6.10;;;5.60;;
20423;SDS011;10371;49.042;8.002;2022-09-03T06:04:28;5.57;;;5.10;;
20423;SDS011;10371;49.042;8.002;2022-09-03T06:05:28;5.88;;;5.10;;
20423;SDS011;10371;49.042;8.002;2022-09-03T06:06:29;5.90;;;5.32;;
20423;SDS011;10371;49.042;8.002;2022-09-03T06:07:31;5.38;;;4.97;;
20423;SDS011;10371;49.042;8.002;2022-09-03T06:08:33;5.82;;;5.32;;
20423;SDS011;10371;49.042;8.002;2022-09-03T06:09:34;5.22;;;4.75;;
20423;SDS011;10371;49.042;8.002;2022-09-03T06:10:34;4.88;;;4.57;;
20423;SDS011;10371;49.042;8.002;2022-09-03T06:11:34;5.20;;;4.63;;
20423;SDS011;10371;49.042;8.002;2022-09-03T06:12:36;5.47;;;5.07;;
20423;SDS011;10371;49.042;8.002;2022-09-03T06:13:37;5.70;;;5.22;;
20423;SDS011;10371;49.042;8.002;2022-09-03T06:14:37;5.65;;;5.25;;
20423;SDS011;10371;49.042;8.002;2022-09-03T06:15:38;5.70;;;5.30;;
20423;SDS011;10371;49.042;8.002;2022-09-03T06:16:39;6.90;;;6.18;;
20423;SDS011;10371;49.042;8.002;2022-09-03T06:17:41;7.35;;;5.80;;
20423;SDS011;10371;49.042;8.002;2022-09-03T06:18:42;7.03;;;6.43;;
20423;SDS011;10371;49.042;8.002;2022-09-03T06:19:42;7.45;;;5.95;;
20423;SDS011;10371;49.042;8.002;2022-09-03T06:20:43;6.47;;;5.97;;
20423;SDS011;10371;49.042;8.002;2022-09-03T06:21:52;6.07;;;5.53;;
20423;SDS011;10371;49.042;8.002;2022-09-03T06:22:52;6.80;;;6.13;;
20423;SDS011;10371;49.042;8.002;2022-09-03T06:23:53;6.60;;;6.00;;
20423;SDS011;10371;49.042;8.002;2022-09-03T06:24:58;6.45;;;5.95;;
20423;SDS011;10371;49.042;8.002;2022-09-03T06:25:59;6.07;;;5.47;;
20423;SDS011;10371;49.042;8.002;2022-09-03T06:27:02;5.50;;;5.10;;
20423;SDS011;10371;49.042;8.002;2022-09-03T06:28:02;5.68;;;5.10;;
20423;SDS011;10371;49.042;8.002;2022-09-03T06:29:02;5.78;;;5.38;;
20423;SDS011;10371;49.042;8.002;2022-09-03T06:30:03;5.90;;;5.40;;
20423;SDS011;10371;49.042;8.002;2022-09-03T06:31:06;5.75;;;4.90;;
20423;SDS011;10371;49.042;8.002;2022-09-03T06:32:08;6.20;;;5.38;;
20423;SDS011;10371;49.042;8.002;2022-09-03T06:33:08;5.80;;;5.22;;
20423;SDS011;10371;49.042;8.002;2022-09-03T06:34:08;6.63;;;5.55;;
20423;SDS011;10371;49.042;8.002;2022-09-03T06:35:09;6.70;;;5.57;;
20423;SDS011;10371;49.042;8.002;2022-09-03T06:36:10;5.40;;;4.85;;
20423;SDS011;10371;49.042;8.002;2022-09-03T06:37:12;4.93;;;4.53;;
20423;SDS011;10371;49.042;8.002;2022-09-03T06:38:12;5.13;;;4.63;;
20423;SDS011;10371;49.042;8.002;2022-09-03T06:39:13;5.35;;;4.85;;
20423;SDS011;10371;49.042;8.002;2022-09-03T06:40:13;5.45;;;4.97;;
20423;SDS011;10371;49.042;8.002;2022-09-03T06:41:20;6.15;;;4.68;;
20423;SDS011;10371;49.042;8.002;2022-09-03T06:42:24;4.90;;;4.50;;
20423;SDS011;10371;49.042;8.002;2022-09-03T06:43:26;4.70;;;4.25;;
20423;SDS011;10371;49.042;8.002;2022-09-03T06:44:27;5.85;;;5.32;;
20423;SDS011;10371;49.042;8.002;2022-09-03T06:45:28;5.20;;;4.57;;
20423;SDS011;10371;49.042;8.002;2022-09-03T06:46:30;5.32;;;4.85;;
20423;SDS011;10371;49.042;8.002;2022-09-03T06:47:32;4.80;;;4.40;;
20423;SDS011;10371;49.042;8.002;2022-09-03T06:48:33;4.90;;;4.53;;
20423;SDS011;10371;49.042;8.002;2022-09-03T06:49:34;5.03;;;4.53;;
20423;SDS011;10371;49.042;8.002;2022-09-03T06:50:35;4.85;;;4.40;;
20423;SDS011;10371;49.042;8.002;2022-09-03T06:51:35;5.57;;;4.90;;
20423;SDS011;10371;49.042;8.002;2022-09-03T06:52:37;6.47;;;5.40;;
20423;SDS011;10371;49.042;8.002;2022-09-03T06:53:38;6.20;;;5.70;;
20423;SDS011;10371;49.042;8.002;2022-09-03T06:54:41;5.70;;;5.20;;
20423;SDS011;10371;49.042;8.002;2022-09-03T06:55:41;10.90;;;5.55;;
20423;SDS011;10371;49.042;8.002;2022-09-03T06:56:42;5.68;;;5.28;;
20423;SDS011;10371;49.042;8.002;2022-09-03T06:57:42;5.53;;;5.13;;
20423;SDS011;10371;49.042;8.002;2022-09-03T06:58:43;5.65;;;5.15;;
20423;SDS011;10371;49.042;8.002;2022-09-03T06:59:45;7.13;;;5.25;;
20423;SDS011;10371;49.042;8.002;2022-09-03T07:00:45;5.40;;;4.97;;
20423;SDS011;10371;49.042;8.002;2022-09-03T07:01:46;5.43;;;5.03;;
20423;SDS011;10371;49.042;8.002;2022-09-03T07:02:46;5.53;;;5.00;;
20423;SDS011;10371;49.042;8.002;2022-09-03T07:03:51;4.85;;;4.40;;
20423;SDS011;10371;49.042;8.002;2022-09-03T07:04:55;5.75;;;4.72;;